createdAt,value
2024-02-27T00:00:04.673Z,146.00
2024-02-27T00:00:38.569Z,146.00
2024-02-27T00:01:11.938Z,145.00
2024-02-27T00:01:44.623Z,145.00
2024-02-27T00:02:17.287Z,145.67
2024-02-27T00:02:51.013Z,146.00
2024-02-27T00:03:23.760Z,146.00
2024-02-27T00:03:56.642Z,145.00
2024-02-27T00:04:29.214Z,144.00
2024-02-27T00:05:03.120Z,144.00
2024-02-27T00:05:35.840Z,143.00
2024-02-27T00:06:09.329Z,142.67
2024-02-27T00:06:42.527Z,142.00
2024-02-27T00:07:16.906Z,141.00
2024-02-27T00:07:49.768Z,141.00
2024-02-27T00:08:22.129Z,140.67
2024-02-27T00:08:54.730Z,140.00
2024-02-27T00:09:27.956Z,140.00
2024-02-27T00:10:02.525Z,140.00
2024-02-27T00:10:36.303Z,140.00
2024-02-27T00:11:09.041Z,139.00
2024-02-27T00:11:42.141Z,138.33
2024-02-27T00:12:16.643Z,137.67
2024-02-27T00:12:49.508Z,137.00
2024-02-27T00:13:22.198Z,137.00
2024-02-27T00:13:55.375Z,137.00
2024-02-27T00:14:28.963Z,137.00
2024-02-27T00:15:01.662Z,136.00
2024-02-27T00:15:34.269Z,136.00
2024-02-27T00:16:07.245Z,135.33
2024-02-27T00:16:40.945Z,134.67
2024-02-27T00:17:13.712Z,134.00
2024-02-27T00:17:46.189Z,132.67
2024-02-27T00:18:20.095Z,131.33
2024-02-27T00:18:52.944Z,131.00
2024-02-27T00:19:25.706Z,130.67
2024-02-27T00:19:58.353Z,128.67
2024-02-27T00:20:32.146Z,123.33
2024-02-27T00:21:04.772Z,120.67
2024-02-27T00:21:37.608Z,119.00
2024-02-27T00:22:10.342Z,117.00
2024-02-27T00:22:43.707Z,114.00
2024-02-27T00:23:16.397Z,111.33
2024-02-27T00:23:48.780Z,111.00
2024-02-27T00:24:21.524Z,110.33
2024-02-27T00:24:55.227Z,109.33
2024-02-27T00:25:27.902Z,107.67
2024-02-27T00:26:01.774Z,106.33
2024-02-27T00:26:34.414Z,106.00
2024-02-27T00:27:07.257Z,107.00
2024-02-27T00:27:40.749Z,106.67
2024-02-27T00:28:13.332Z,104.67
2024-02-27T00:28:45.925Z,103.67
2024-02-27T00:29:19.735Z,103.00
2024-02-27T00:29:52.531Z,102.00
2024-02-27T00:30:26.024Z,100.67
2024-02-27T00:30:58.829Z,99.33
2024-02-27T00:31:31.267Z,98.33
2024-02-27T00:32:04.502Z,97.33
2024-02-27T00:32:38.250Z,95.33
2024-02-27T00:33:10.846Z,95.67
2024-02-27T00:33:43.864Z,94.33
2024-02-27T00:34:17.131Z,91.67
2024-02-27T00:34:52.158Z,90.33
2024-02-27T00:35:24.877Z,89.67
2024-02-27T00:35:57.501Z,89.00
2024-02-27T00:36:31.148Z,89.00
2024-02-27T00:37:03.930Z,89.00
2024-02-27T00:37:36.377Z,88.67
2024-02-27T00:38:09.456Z,87.67
2024-02-27T00:38:43.493Z,87.00
2024-02-27T00:39:16.090Z,86.33
2024-02-27T00:39:48.805Z,85.67
2024-02-27T00:40:22.596Z,85.00
2024-02-27T00:40:55.594Z,84.00
2024-02-27T00:41:29.716Z,84.00
2024-02-27T00:42:03.954Z,84.00
2024-02-27T00:42:37.732Z,84.00
2024-02-27T00:43:10.504Z,83.67
2024-02-27T00:43:43.019Z,83.00
2024-02-27T00:44:15.482Z,83.00
2024-02-27T00:44:49.076Z,83.00
2024-02-27T00:45:21.975Z,83.00
2024-02-27T00:45:54.745Z,83.00
2024-02-27T00:46:27.530Z,83.00
2024-02-27T00:47:00.885Z,83.00
2024-02-27T00:47:33.324Z,83.00
2024-02-27T00:48:07.331Z,83.00
2024-02-27T00:48:40.138Z,83.00
2024-02-27T00:49:14.170Z,83.00
2024-02-27T00:49:47.031Z,82.67
2024-02-27T00:50:20.272Z,82.00
2024-02-27T00:50:55.311Z,81.33
2024-02-27T00:51:29.125Z,81.00
2024-02-27T00:52:01.544Z,80.00
2024-02-27T00:52:34.285Z,78.67
2024-02-27T00:53:08.464Z,77.33
2024-02-27T00:53:41.276Z,76.00
2024-02-27T00:54:13.822Z,75.00
2024-02-27T00:54:46.292Z,74.00
2024-02-27T00:55:19.946Z,73.33
2024-02-27T00:55:52.667Z,72.67
2024-02-27T00:56:25.635Z,71.67
2024-02-27T00:56:59.745Z,70.33
2024-02-27T00:57:33.318Z,70.00
2024-02-27T00:58:06.252Z,69.00
2024-02-27T00:58:38.965Z,69.00
2024-02-27T00:59:11.603Z,69.00
2024-02-27T00:59:45.338Z,69.00
2024-02-27T01:00:19.684Z,69.00
2024-02-27T01:00:52.981Z,69.00
2024-02-27T01:01:25.861Z,67.67
2024-02-27T01:01:59.704Z,67.00
2024-02-27T01:02:32.381Z,66.00
2024-02-27T01:03:05.566Z,65.33
2024-02-27T01:03:39.429Z,65.00
2024-02-27T01:04:12.264Z,64.00
2024-02-27T01:04:44.839Z,63.67
2024-02-27T01:05:17.747Z,63.00
2024-02-27T01:05:51.366Z,62.33
2024-02-27T01:06:24.197Z,62.00
2024-02-27T01:06:57.060Z,61.67
2024-02-27T01:07:29.929Z,61.00
2024-02-27T01:08:03.575Z,61.00
2024-02-27T01:08:35.967Z,61.00
2024-02-27T01:09:08.629Z,61.00
2024-02-27T01:09:41.372Z,60.33
2024-02-27T01:10:14.878Z,60.00
2024-02-27T01:11:37.534Z,59.33
2024-02-27T01:12:11.772Z,59.00
2024-02-27T01:12:45.251Z,59.00
2024-02-27T01:13:17.846Z,59.00
2024-02-27T01:13:50.516Z,59.00
2024-02-27T01:14:23.224Z,59.00
2024-02-27T01:14:57.053Z,58.33
2024-02-27T01:15:29.807Z,58.00
2024-02-27T01:16:02.473Z,58.00
2024-02-27T01:16:35.392Z,58.00
2024-02-27T01:17:09.216Z,58.00
2024-02-27T01:17:41.870Z,57.00
2024-02-27T01:18:14.687Z,57.00
2024-02-27T01:18:48.561Z,57.00
2024-02-27T01:19:21.941Z,57.00
2024-02-27T01:19:54.623Z,56.00
2024-02-27T01:20:28.330Z,56.00
2024-02-27T01:21:02.428Z,56.00
2024-02-27T01:21:35.061Z,56.00
2024-02-27T01:22:08.720Z,56.00
2024-02-27T01:22:41.760Z,55.33
2024-02-27T01:23:14.532Z,55.00
2024-02-27T01:23:47.425Z,55.00
2024-02-27T01:24:21.180Z,55.00
2024-02-27T01:24:53.981Z,54.67
2024-02-27T01:25:26.680Z,54.00
2024-02-27T01:25:59.501Z,54.00
2024-02-27T01:26:33.255Z,53.00
2024-02-27T01:27:06.394Z,52.33
2024-02-27T01:27:40.548Z,51.67
2024-02-27T01:28:13.217Z,51.00
2024-02-27T01:28:46.786Z,50.33
2024-02-27T01:29:19.230Z,49.67
2024-02-27T01:29:52.765Z,49.00
2024-02-27T01:30:25.496Z,49.00
2024-02-27T01:30:59.294Z,48.00
2024-02-27T01:31:31.753Z,48.00
2024-02-27T01:32:09.314Z,48.00
2024-02-27T01:32:42.246Z,47.00
2024-02-27T01:33:16.267Z,47.00
2024-02-27T01:33:49.691Z,47.00
2024-02-27T01:34:23.057Z,46.33
2024-02-27T01:34:55.936Z,46.00
2024-02-27T01:35:30.372Z,46.00
2024-02-27T01:36:03.425Z,46.00
2024-02-27T01:36:36.127Z,45.00
2024-02-27T01:37:08.600Z,45.00
2024-02-27T01:37:43.061Z,45.00
2024-02-27T01:38:15.738Z,45.00
2024-02-27T01:38:48.334Z,44.33
2024-02-27T01:39:24.333Z,44.00
2024-02-27T01:39:58.027Z,44.00
2024-02-27T01:40:30.755Z,44.00
2024-02-27T01:41:03.636Z,44.00
2024-02-27T01:41:36.420Z,44.00
2024-02-27T01:42:10.526Z,44.00
2024-02-27T01:42:46.161Z,44.00
2024-02-27T01:43:23.143Z,44.00
2024-02-27T01:43:57.033Z,44.00
2024-02-27T01:44:29.726Z,44.00
2024-02-27T01:45:02.420Z,44.00
2024-02-27T01:45:35.137Z,44.00
2024-02-27T01:46:12.442Z,44.00
2024-02-27T01:46:46.862Z,44.00
2024-02-27T01:47:21.006Z,43.33
2024-02-27T01:47:55.173Z,43.00
2024-02-27T01:48:29.037Z,43.00
2024-02-27T01:49:04.170Z,43.00
2024-02-27T01:49:37.413Z,43.00
2024-02-27T01:50:11.763Z,43.00
2024-02-27T01:50:46.734Z,43.00
2024-02-27T01:51:21.689Z,43.00
2024-02-27T01:51:56.094Z,43.00
2024-02-27T01:52:28.958Z,43.00
2024-02-27T01:53:01.932Z,43.00
2024-02-27T01:53:37.729Z,43.00
2024-02-27T01:54:14.700Z,43.00
2024-02-27T01:54:50.865Z,43.00
2024-02-27T01:55:23.500Z,42.00
2024-02-27T01:55:57.646Z,42.00
2024-02-27T01:56:30.300Z,42.00
2024-02-27T01:57:03.778Z,42.00
2024-02-27T01:57:36.716Z,42.00
2024-02-27T01:58:13.742Z,42.00
2024-02-27T01:58:47.486Z,42.00
2024-02-27T01:59:22.415Z,42.00
2024-02-27T01:59:56.021Z,42.00
2024-02-27T02:00:29.980Z,42.00
2024-02-27T02:01:04.187Z,42.00
2024-02-27T02:01:37.783Z,42.00
2024-02-27T02:02:10.639Z,42.00
2024-02-27T02:02:46.146Z,42.00
2024-02-27T02:03:23.258Z,42.00
2024-02-27T02:04:00.370Z,42.00
2024-02-27T02:04:39.030Z,42.00
2024-02-27T02:05:13.127Z,42.00
2024-02-27T02:05:46.953Z,42.00
2024-02-27T02:06:21.285Z,42.00
2024-02-27T02:06:55.318Z,42.00
2024-02-27T02:07:37.449Z,41.33
2024-02-27T02:08:10.082Z,41.00
2024-02-27T02:08:43.719Z,41.00
2024-02-27T02:09:16.485Z,41.00
2024-02-27T02:09:49.309Z,41.00
2024-02-27T02:10:22.226Z,41.00
2024-02-27T02:11:13.015Z,41.00
2024-02-27T02:11:47.600Z,41.00
2024-02-27T02:12:20.423Z,41.00
2024-02-27T02:12:54.266Z,41.00
2024-02-27T02:13:29.513Z,41.00
2024-02-27T02:14:03.475Z,41.00
2024-02-27T02:14:36.390Z,41.00
2024-02-27T02:15:10.528Z,40.00
2024-02-27T02:15:43.620Z,40.00
2024-02-27T02:16:16.105Z,40.00
2024-02-27T02:16:48.922Z,40.00
2024-02-27T02:17:22.758Z,40.00
2024-02-27T02:17:55.717Z,40.00
2024-02-27T02:18:28.419Z,40.00
2024-02-27T02:19:01.415Z,40.00
2024-02-27T02:19:35.174Z,40.00
2024-02-27T02:20:09.683Z,40.00
2024-02-27T02:20:44.016Z,40.00
2024-02-27T02:21:16.534Z,39.00
2024-02-27T02:21:52.231Z,39.00
2024-02-27T02:22:24.750Z,39.00
2024-02-27T02:22:57.297Z,39.00
2024-02-27T02:23:31.131Z,39.00
2024-02-27T02:24:05.238Z,39.00
2024-02-27T02:24:39.464Z,39.00
2024-02-27T02:25:12.992Z,39.00
2024-02-27T02:25:48.881Z,39.00
2024-02-27T02:26:26.275Z,39.00
2024-02-27T02:27:00.135Z,39.00
2024-02-27T02:27:34.075Z,39.00
2024-02-27T02:28:06.796Z,39.00
2024-02-27T02:28:40.466Z,39.00
2024-02-27T02:29:12.925Z,39.00
2024-02-27T02:29:45.425Z,39.00
2024-02-27T02:30:17.890Z,39.67
2024-02-27T02:30:51.542Z,40.00
2024-02-27T02:31:24.318Z,40.00
2024-02-27T02:31:57.142Z,40.00
2024-02-27T02:32:29.872Z,40.00
2024-02-27T02:33:03.704Z,40.00
2024-02-27T02:33:36.396Z,40.00
2024-02-27T02:34:09.283Z,40.00
2024-02-27T02:34:42.280Z,40.00
2024-02-27T02:35:15.328Z,40.00
2024-02-27T02:35:50.279Z,40.00
2024-02-27T02:36:23.189Z,40.00
2024-02-27T02:36:55.902Z,40.00
2024-02-27T02:37:29.333Z,40.00
2024-02-27T02:38:04.264Z,40.00
2024-02-27T02:38:36.903Z,40.00
2024-02-27T02:39:10.575Z,40.00
2024-02-27T02:39:43.206Z,40.00
2024-02-27T02:40:18.917Z,40.00
2024-02-27T02:40:51.854Z,40.00
2024-02-27T02:41:24.617Z,40.00
2024-02-27T02:41:58.122Z,40.00
2024-02-27T02:42:31.580Z,40.00
2024-02-27T02:43:04.678Z,40.00
2024-02-27T02:43:37.533Z,40.00
2024-02-27T02:44:10.837Z,40.00
2024-02-27T02:44:45.117Z,40.00
2024-02-27T02:45:18.205Z,40.00
2024-02-27T02:45:53.376Z,40.00
2024-02-27T02:46:30.153Z,40.00
2024-02-27T02:47:03.944Z,40.00
2024-02-27T02:47:37.364Z,40.00
2024-02-27T02:48:11.062Z,40.00
2024-02-27T02:48:44.435Z,40.00
2024-02-27T02:49:33.673Z,40.00
2024-02-27T02:50:08.938Z,40.00
2024-02-27T02:50:42.366Z,40.00
2024-02-27T02:51:18.131Z,40.00
2024-02-27T02:51:50.964Z,40.00
2024-02-27T02:52:32.434Z,40.00
2024-02-27T02:53:05.710Z,40.00
2024-02-27T02:53:39.650Z,40.00
2024-02-27T02:54:12.988Z,40.00
2024-02-27T02:54:45.970Z,40.00
2024-02-27T02:55:18.775Z,40.00
2024-02-27T02:55:52.572Z,40.33
2024-02-27T02:56:25.299Z,43.00
2024-02-27T02:56:58.102Z,44.33
2024-02-27T02:57:31.151Z,45.00
2024-02-27T02:58:05.339Z,45.00
2024-02-27T02:58:39.274Z,44.67
2024-02-27T02:59:11.717Z,44.00
2024-02-27T02:59:45.518Z,44.00
2024-02-27T03:00:20.322Z,44.00
2024-02-27T03:00:53.384Z,44.00
2024-02-27T03:01:26.329Z,44.00
2024-02-27T03:01:59.042Z,43.00
2024-02-27T03:02:33.145Z,43.00
2024-02-27T03:03:06.038Z,43.00
2024-02-27T03:03:38.905Z,43.00
2024-02-27T03:04:12.194Z,43.00
2024-02-27T03:04:46.516Z,43.00
2024-02-27T03:05:19.302Z,43.00
2024-02-27T03:05:52.486Z,43.00
2024-02-27T03:06:27.829Z,42.33
2024-02-27T03:07:00.797Z,42.00
2024-02-27T03:07:34.355Z,42.00
2024-02-27T03:08:09.998Z,42.00
2024-02-27T03:08:44.302Z,42.00
2024-02-27T03:09:17.051Z,42.00
2024-02-27T03:09:49.833Z,42.00
2024-02-27T03:10:22.497Z,42.00
2024-02-27T03:10:56.994Z,42.00
2024-02-27T03:11:29.935Z,42.00
2024-02-27T03:12:03.196Z,42.00
2024-02-27T03:12:35.679Z,42.00
2024-02-27T03:13:24.455Z,42.00
2024-02-27T03:13:57.846Z,42.00
2024-02-27T03:14:30.290Z,42.00
2024-02-27T03:15:03.228Z,42.00
2024-02-27T03:15:36.417Z,42.00
2024-02-27T03:16:24.601Z,41.33
2024-02-27T03:16:58.338Z,41.00
2024-02-27T03:17:31.461Z,41.00
2024-02-27T03:18:05.248Z,41.00
2024-02-27T03:18:38.812Z,41.00
2024-02-27T03:19:24.277Z,41.00
2024-02-27T03:19:56.929Z,41.00
2024-02-27T03:20:29.671Z,41.00
2024-02-27T03:21:02.350Z,41.00
2024-02-27T03:21:37.466Z,41.00
2024-02-27T03:22:10.820Z,41.33
2024-02-27T03:22:43.970Z,42.00
2024-02-27T03:23:16.488Z,42.00
2024-02-27T03:23:50.176Z,42.00
2024-02-27T03:24:22.970Z,42.00
2024-02-27T03:24:55.811Z,42.00
2024-02-27T03:25:29.960Z,42.00
2024-02-27T03:26:02.894Z,42.00
2024-02-27T03:26:35.909Z,42.00
2024-02-27T03:27:08.975Z,42.00
2024-02-27T03:27:43.169Z,42.00
2024-02-27T03:28:27.377Z,42.00
2024-02-27T03:29:00.231Z,42.67
2024-02-27T03:29:33.237Z,43.00
2024-02-27T03:30:08.903Z,43.00
2024-02-27T03:30:41.512Z,43.00
2024-02-27T03:31:22.513Z,43.00
2024-02-27T03:31:55.134Z,43.00
2024-02-27T03:32:28.748Z,43.00
2024-02-27T03:33:01.610Z,43.00
2024-02-27T03:33:34.559Z,43.00
2024-02-27T03:34:22.349Z,43.00
2024-02-27T03:34:56.438Z,43.00
2024-02-27T03:35:29.499Z,43.00
2024-02-27T03:36:04.506Z,43.00
2024-02-27T03:36:41.679Z,43.00
2024-02-27T03:37:16.566Z,43.00
2024-02-27T03:37:49.174Z,43.00
2024-02-27T03:38:32.803Z,43.00
2024-02-27T03:39:06.234Z,43.00
2024-02-27T03:39:38.831Z,42.33
2024-02-27T03:40:12.077Z,42.00
2024-02-27T03:40:44.836Z,42.00
2024-02-27T03:41:20.478Z,42.00
2024-02-27T03:41:53.330Z,42.00
2024-02-27T03:42:25.832Z,42.00
2024-02-27T03:42:59.812Z,42.00
2024-02-27T03:43:32.504Z,42.00
2024-02-27T03:44:05.405Z,42.00
2024-02-27T03:44:38.406Z,42.00
2024-02-27T03:45:12.712Z,42.00
2024-02-27T03:45:46.445Z,42.00
2024-02-27T03:46:19.477Z,42.00
2024-02-27T03:46:51.922Z,42.00
2024-02-27T03:47:25.577Z,42.00
2024-02-27T03:47:58.254Z,42.00
2024-02-27T03:48:31.123Z,42.00
2024-02-27T03:49:05.050Z,42.00
2024-02-27T03:49:37.869Z,42.00
2024-02-27T03:50:11.017Z,42.00
2024-02-27T03:50:44.842Z,43.00
2024-02-27T03:51:17.516Z,43.00
2024-02-27T03:51:54.039Z,43.00
2024-02-27T03:52:26.475Z,42.33
2024-02-27T03:53:00.151Z,42.00
2024-02-27T03:53:33.150Z,42.00
2024-02-27T03:54:08.639Z,42.00
2024-02-27T03:54:41.426Z,42.00
2024-02-27T03:55:15.013Z,42.00
2024-02-27T03:55:47.714Z,43.00
2024-02-27T03:56:20.813Z,43.00
2024-02-27T03:56:53.215Z,43.00
2024-02-27T03:57:26.627Z,43.00
2024-02-27T03:57:59.333Z,43.00
2024-02-27T03:58:31.963Z,43.00
2024-02-27T03:59:04.446Z,43.00
2024-02-27T03:59:38.393Z,43.00
2024-02-27T04:00:12.846Z,43.00
2024-02-27T04:00:46.067Z,43.00
2024-02-27T04:01:19.301Z,43.00
2024-02-27T04:01:53.528Z,43.00
2024-02-27T04:02:26.290Z,43.00
2024-02-27T04:02:58.755Z,43.00
2024-02-27T04:03:32.622Z,43.00
2024-02-27T04:04:05.770Z,43.00
2024-02-27T04:04:38.176Z,43.00
2024-02-27T04:05:11.410Z,43.00
2024-02-27T04:05:45.592Z,43.00
2024-02-27T04:06:18.258Z,43.00
2024-02-27T04:06:52.493Z,43.00
2024-02-27T04:07:26.234Z,43.00
2024-02-27T04:07:58.792Z,43.00
2024-02-27T04:08:31.361Z,43.00
2024-02-27T04:09:05.394Z,43.00
2024-02-27T04:09:39.222Z,43.00
2024-02-27T04:10:12.552Z,43.00
2024-02-27T04:10:45.441Z,43.00
2024-02-27T04:11:19.037Z,43.00
2024-02-27T04:11:53.931Z,43.00
2024-02-27T04:12:26.810Z,43.00
2024-02-27T04:12:59.579Z,43.00
2024-02-27T04:13:33.369Z,43.00
2024-02-27T04:14:23.014Z,43.00
2024-02-27T04:14:56.571Z,43.00
2024-02-27T04:15:29.426Z,43.00
2024-02-27T04:16:02.168Z,43.33
2024-02-27T04:16:37.390Z,44.00
2024-02-27T04:17:09.892Z,44.00
2024-02-27T04:17:42.584Z,44.00
2024-02-27T04:18:15.218Z,45.00
2024-02-27T04:18:48.116Z,45.00
2024-02-27T04:19:22.131Z,45.00
2024-02-27T04:19:55.141Z,45.00
2024-02-27T04:20:27.825Z,45.00
2024-02-27T04:21:00.732Z,45.00
2024-02-27T04:21:33.294Z,45.67
2024-02-27T04:22:09.620Z,46.00
2024-02-27T04:22:42.307Z,46.00
2024-02-27T04:23:14.944Z,46.00
2024-02-27T04:23:47.771Z,46.00
2024-02-27T04:24:22.159Z,46.33
2024-02-27T04:24:57.105Z,47.00
2024-02-27T04:25:29.597Z,47.33
2024-02-27T04:26:03.242Z,48.00
2024-02-27T04:26:35.966Z,48.67
2024-02-27T04:27:08.571Z,49.00
2024-02-27T04:27:41.512Z,50.00
2024-02-27T04:28:15.875Z,50.00
2024-02-27T04:29:08.512Z,50.00
2024-02-27T04:29:41.782Z,50.67
2024-02-27T04:30:15.993Z,51.00
2024-02-27T04:30:48.759Z,51.33
2024-02-27T04:31:21.667Z,52.00
2024-02-27T04:31:55.499Z,52.67
2024-02-27T04:32:28.209Z,53.00
2024-02-27T04:33:01.865Z,53.00
2024-02-27T04:33:35.216Z,54.00
2024-02-27T04:34:09.177Z,54.00
2024-02-27T04:34:43.057Z,55.00
2024-02-27T04:35:16.116Z,55.00
2024-02-27T04:35:49.648Z,56.00
2024-02-27T04:36:23.390Z,56.00
2024-02-27T04:36:57.996Z,55.33
2024-02-27T04:37:32.982Z,55.00
2024-02-27T04:38:07.463Z,55.00
2024-02-27T04:38:42.025Z,55.00
2024-02-27T04:39:15.482Z,54.33
2024-02-27T04:39:48.192Z,54.00
2024-02-27T04:40:22.104Z,54.00
2024-02-27T04:40:54.852Z,53.33
2024-02-27T04:41:27.771Z,53.00
2024-02-27T04:42:01.465Z,53.00
2024-02-27T04:42:34.416Z,52.33
2024-02-27T04:43:07.212Z,52.00
2024-02-27T04:43:40.606Z,51.33
2024-02-27T04:44:13.305Z,51.00
2024-02-27T04:44:46.723Z,51.00
2024-02-27T04:45:19.759Z,51.00
2024-02-27T04:45:56.381Z,51.00
2024-02-27T04:46:29.138Z,51.00
2024-02-27T04:47:02.494Z,51.00
2024-02-27T04:47:35.527Z,51.00
2024-02-27T04:48:08.853Z,51.00
2024-02-27T04:48:42.602Z,51.00
2024-02-27T04:49:16.252Z,51.00
2024-02-27T04:49:48.932Z,51.00
2024-02-27T04:50:21.732Z,51.00
2024-02-27T04:50:54.649Z,51.00
2024-02-27T04:51:28.856Z,51.67
2024-02-27T04:52:01.453Z,52.00
2024-02-27T04:52:35.926Z,52.33
2024-02-27T04:53:09.396Z,53.00
2024-02-27T04:53:42.230Z,53.67
2024-02-27T04:54:14.904Z,54.00
2024-02-27T04:55:02.420Z,55.00
2024-02-27T04:55:36.286Z,56.00
2024-02-27T04:56:08.935Z,56.00
2024-02-27T04:56:42.377Z,56.00
2024-02-27T04:57:15.238Z,56.33
2024-02-27T04:57:49.170Z,57.00
2024-02-27T04:58:21.890Z,57.00
2024-02-27T04:58:55.277Z,57.67
2024-02-27T04:59:28.025Z,57.33
2024-02-27T05:00:01.520Z,57.00
2024-02-27T05:00:34.120Z,57.00
2024-02-27T05:01:11.224Z,57.00
2024-02-27T05:01:50.170Z,57.00
2024-02-27T05:02:24.051Z,56.33
2024-02-27T05:03:59.785Z,55.00
2024-02-27T05:04:33.128Z,54.00
2024-02-27T05:05:08.099Z,54.00
2024-02-27T05:05:40.881Z,53.67
2024-02-27T05:06:15.096Z,53.00
2024-02-27T05:07:01.980Z,53.00
2024-02-27T05:07:36.458Z,53.00
2024-02-27T05:08:10.228Z,53.00
2024-02-27T05:08:42.632Z,52.00
2024-02-27T05:09:15.649Z,52.00
2024-02-27T05:09:59.724Z,52.00
2024-02-27T05:10:33.437Z,52.00
2024-02-27T05:11:06.324Z,52.67
2024-02-27T05:11:40.513Z,53.00
2024-02-27T05:12:13.587Z,54.00
2024-02-27T05:12:46.392Z,54.00
2024-02-27T05:13:19.907Z,53.33
2024-02-27T05:13:52.616Z,53.00
2024-02-27T05:14:27.170Z,53.00
2024-02-27T05:14:59.826Z,52.33
2024-02-27T05:15:33.553Z,52.00
2024-02-27T05:16:07.915Z,52.00
2024-02-27T05:16:41.350Z,52.00
2024-02-27T05:17:14.082Z,51.00
2024-02-27T05:17:47.856Z,51.00
2024-02-27T05:18:20.870Z,51.00
2024-02-27T05:18:55.998Z,51.00
2024-02-27T05:19:29.774Z,51.00
2024-02-27T05:20:02.234Z,51.00
2024-02-27T05:20:34.686Z,51.00
2024-02-27T05:21:08.129Z,51.00
2024-02-27T05:21:41.831Z,51.00
2024-02-27T05:22:14.447Z,51.00
2024-02-27T05:22:48.478Z,51.00
2024-02-27T05:23:21.474Z,51.00
2024-02-27T05:23:54.919Z,51.00
2024-02-27T05:24:27.681Z,51.00
2024-02-27T05:25:00.362Z,51.00
2024-02-27T05:26:46.102Z,52.00
2024-02-27T05:27:20.826Z,52.00
2024-02-27T05:27:54.599Z,52.00
2024-02-27T05:28:27.207Z,52.00
2024-02-27T05:29:01.251Z,53.00
2024-02-27T05:29:34.357Z,53.00
2024-02-27T05:30:08.602Z,53.00
2024-02-27T05:30:44.175Z,53.00
2024-02-27T05:31:25.526Z,53.00
2024-02-27T05:31:58.223Z,54.00
2024-02-27T05:32:32.497Z,54.00
2024-02-27T05:33:06.432Z,54.00
2024-02-27T05:33:39.764Z,54.00
2024-02-27T05:34:36.668Z,53.00
2024-02-27T05:35:09.959Z,53.00
2024-02-27T05:35:43.351Z,53.00
2024-02-27T05:36:15.830Z,53.00
2024-02-27T05:36:48.673Z,53.00
2024-02-27T05:37:21.408Z,53.00
2024-02-27T05:37:56.199Z,52.33
2024-02-27T05:38:28.726Z,52.00
2024-02-27T05:39:01.615Z,52.00
2024-02-27T05:39:34.671Z,52.00
2024-02-27T05:40:12.331Z,52.00
2024-02-27T05:40:45.343Z,52.00
2024-02-27T05:41:19.321Z,52.00
2024-02-27T05:41:52.969Z,52.00
2024-02-27T05:42:27.235Z,52.00
2024-02-27T05:42:59.985Z,51.67
2024-02-27T05:43:33.220Z,51.00
2024-02-27T05:44:06.235Z,51.00
2024-02-27T05:44:40.024Z,51.00
2024-02-27T05:45:13.279Z,51.00
2024-02-27T05:46:00.871Z,51.00
2024-02-27T05:46:35.313Z,51.00
2024-02-27T05:47:08.354Z,52.00
2024-02-27T05:47:41.014Z,52.00
2024-02-27T05:48:15.273Z,53.00
2024-02-27T05:48:50.941Z,53.00
2024-02-27T05:49:23.661Z,53.00
2024-02-27T05:49:56.807Z,53.00
2024-02-27T05:50:30.283Z,53.00
2024-02-27T05:51:03.109Z,53.33
2024-02-27T05:52:27.142Z,54.00
2024-02-27T05:53:01.282Z,54.00
2024-02-27T05:53:35.303Z,53.33
2024-02-27T05:54:08.166Z,53.00
2024-02-27T05:54:42.072Z,53.00
2024-02-27T05:55:15.098Z,53.00
2024-02-27T05:55:47.848Z,53.00
2024-02-27T05:56:23.064Z,53.00
2024-02-27T05:56:56.588Z,53.00
2024-02-27T05:57:29.095Z,53.00
2024-02-27T05:58:02.380Z,53.33
2024-02-27T05:58:35.061Z,54.67
2024-02-27T05:59:08.953Z,55.00
2024-02-27T05:59:41.680Z,55.00
2024-02-27T06:00:16.035Z,55.00
2024-02-27T06:00:48.867Z,55.00
2024-02-27T06:01:22.822Z,55.00
2024-02-27T06:01:55.598Z,55.00
2024-02-27T06:02:28.434Z,55.00
2024-02-27T06:03:01.022Z,55.00
2024-02-27T06:03:54.965Z,54.67
2024-02-27T06:04:27.803Z,55.00
2024-02-27T06:05:03.739Z,54.33
2024-02-27T06:05:40.215Z,54.00
2024-02-27T06:06:13.820Z,54.00
2024-02-27T06:06:46.728Z,54.00
2024-02-27T06:07:20.430Z,54.00
2024-02-27T06:07:53.254Z,53.33
2024-02-27T06:08:27.561Z,53.00
2024-02-27T06:09:01.164Z,53.00
2024-02-27T06:10:21.028Z,53.00
2024-02-27T06:10:54.779Z,53.00
2024-02-27T06:11:27.793Z,53.00
2024-02-27T06:12:01.283Z,53.00
2024-02-27T06:12:46.903Z,53.00
2024-02-27T06:13:20.447Z,53.67
2024-02-27T06:13:53.008Z,54.00
2024-02-27T06:14:25.731Z,54.33
2024-02-27T06:14:58.489Z,56.67
2024-02-27T06:15:35.239Z,58.67
2024-02-27T06:16:09.397Z,59.67
2024-02-27T06:16:42.025Z,60.00
2024-02-27T06:17:14.676Z,59.33
2024-02-27T06:17:48.317Z,59.00
2024-02-27T06:18:21.197Z,59.00
2024-02-27T06:18:54.901Z,59.00
2024-02-27T06:19:28.734Z,59.00
2024-02-27T06:20:04.267Z,59.00
2024-02-27T06:20:55.558Z,58.33
2024-02-27T06:21:46.702Z,58.00
2024-02-27T06:22:20.706Z,57.33
2024-02-27T06:22:53.377Z,57.00
2024-02-27T06:23:28.510Z,57.00
2024-02-27T06:24:01.923Z,57.00
2024-02-27T06:24:35.803Z,57.00
2024-02-27T06:25:11.185Z,57.00
2024-02-27T06:25:43.600Z,57.00
2024-02-27T06:26:16.810Z,57.00
2024-02-27T06:26:50.655Z,58.00
2024-02-27T06:27:23.391Z,58.00
2024-02-27T06:27:56.526Z,58.00
2024-02-27T06:28:29.201Z,58.00
2024-02-27T06:29:02.745Z,58.00
2024-02-27T06:29:35.686Z,58.00
2024-02-27T06:30:09.055Z,57.00
2024-02-27T06:30:41.884Z,57.00
2024-02-27T06:31:15.613Z,57.00
2024-02-27T06:31:48.501Z,57.00
2024-02-27T06:32:21.317Z,57.00
2024-02-27T06:32:54.765Z,57.00
2024-02-27T06:34:14.336Z,57.00
2024-02-27T06:34:49.254Z,56.33
2024-02-27T06:35:22.417Z,56.00
2024-02-27T06:35:55.113Z,56.00
2024-02-27T06:36:28.389Z,55.33
2024-02-27T06:37:02.059Z,55.00
2024-02-27T06:37:34.790Z,55.00
2024-02-27T06:38:07.471Z,55.00
2024-02-27T06:38:42.706Z,55.00
2024-02-27T06:39:15.307Z,55.00
2024-02-27T06:39:48.786Z,55.00
2024-02-27T06:40:21.337Z,55.00
2024-02-27T06:40:55.072Z,55.00
2024-02-27T06:41:28.346Z,55.00
2024-02-27T06:42:02.368Z,56.00
2024-02-27T06:42:38.194Z,56.00
2024-02-27T06:43:11.075Z,56.00
2024-02-27T06:43:43.617Z,56.00
2024-02-27T06:44:17.239Z,56.00
2024-02-27T06:44:49.990Z,56.00
2024-02-27T06:45:22.941Z,57.00
2024-02-27T06:45:56.063Z,57.33
2024-02-27T06:46:29.711Z,58.00
2024-02-27T06:47:02.433Z,58.00
2024-02-27T06:47:38.091Z,58.00
2024-02-27T06:48:11.675Z,58.00
2024-02-27T06:48:46.562Z,59.00
2024-02-27T06:49:22.976Z,59.67
2024-02-27T06:49:59.737Z,60.33
2024-02-27T06:50:32.557Z,61.00
2024-02-27T06:51:07.780Z,61.00
2024-02-27T06:51:42.700Z,61.00
2024-02-27T06:52:15.242Z,61.00
2024-02-27T06:52:47.869Z,61.00
2024-02-27T06:53:20.261Z,60.67
2024-02-27T06:53:55.311Z,60.00
2024-02-27T06:54:28.188Z,60.00
2024-02-27T06:55:00.793Z,61.00
2024-02-27T06:55:34.149Z,61.00
2024-02-27T06:56:06.987Z,61.00
2024-02-27T06:56:39.823Z,61.00
2024-02-27T06:57:12.472Z,61.00
2024-02-27T06:57:46.359Z,61.00
2024-02-27T06:58:19.544Z,61.00
2024-02-27T06:58:53.799Z,61.00
2024-02-27T06:59:27.520Z,61.00
2024-02-27T07:00:00.466Z,61.33
2024-02-27T07:00:33.055Z,62.00
2024-02-27T07:01:05.617Z,62.33
2024-02-27T07:01:39.519Z,63.67
2024-02-27T07:02:12.445Z,64.33
2024-02-27T07:02:47.727Z,66.00
2024-02-27T07:03:22.184Z,68.00
2024-02-27T07:03:56.246Z,70.33
2024-02-27T07:04:28.901Z,70.33
2024-02-27T07:05:01.632Z,70.00
2024-02-27T07:05:42.758Z,69.67
2024-02-27T07:06:21.092Z,69.00
2024-02-27T07:06:53.688Z,69.00
2024-02-27T07:07:26.368Z,69.00
2024-02-27T07:07:59.207Z,68.33
2024-02-27T07:08:32.942Z,68.00
2024-02-27T07:09:09.741Z,68.00
2024-02-27T07:09:42.323Z,68.00
2024-02-27T07:10:17.366Z,67.33
2024-02-27T07:10:51.570Z,67.00
2024-02-27T07:11:24.589Z,67.00
2024-02-27T07:11:57.682Z,67.00
2024-02-27T07:12:34.007Z,67.00
2024-02-27T07:13:07.952Z,67.00
2024-02-27T07:13:40.614Z,67.00
2024-02-27T07:14:13.916Z,67.00
2024-02-27T07:14:48.848Z,66.67
2024-02-27T07:15:22.039Z,66.00
2024-02-27T07:15:55.000Z,66.00
2024-02-27T07:16:27.986Z,65.67
2024-02-27T07:17:02.069Z,65.00
2024-02-27T07:17:34.598Z,64.67
2024-02-27T07:18:07.360Z,64.00
2024-02-27T07:18:39.994Z,63.33
2024-02-27T07:19:13.441Z,63.00
2024-02-27T07:19:46.475Z,63.00
2024-02-27T07:20:19.516Z,63.00
2024-02-27T07:20:52.245Z,63.00